createdAt,value
2019-03-30T00:01:22.360Z,21.03
2019-03-30T00:03:53.554Z,19.00
2019-03-30T00:06:24.781Z,15.03
2019-03-30T00:08:56.056Z,16.33
2019-03-30T00:11:27.224Z,18.10
2019-03-30T00:13:58.650Z,113.07
2019-03-30T00:16:29.989Z,94.53
2019-03-30T00:19:01.331Z,80.27
2019-03-30T00:21:32.624Z,74.53
2019-03-30T00:24:03.814Z,20.93
2019-03-30T00:26:35.101Z,16.20
2019-03-30T00:29:06.335Z,17.33
2019-03-30T00:31:37.522Z,19.17
2019-03-30T00:34:08.773Z,17.57
2019-03-30T00:36:39.975Z,16.87
2019-03-30T00:39:11.571Z,19.77
2019-03-30T00:41:42.871Z,18.50
2019-03-30T00:44:14.118Z,17.07
2019-03-30T00:46:45.342Z,16.17
2019-03-30T00:49:16.521Z,15.47
2019-03-30T00:51:47.768Z,20.73
2019-03-30T00:54:19.059Z,15.70
2019-03-30T00:56:50.378Z,16.47
2019-03-30T00:59:21.635Z,16.27
2019-03-30T01:01:52.908Z,17.67
2019-03-30T01:04:24.056Z,15.83
2019-03-30T01:06:55.285Z,16.77
2019-03-30T01:09:26.429Z,18.93
2019-03-30T01:11:57.623Z,17.13
2019-03-30T01:14:28.836Z,17.50
2019-03-30T01:17:00.078Z,19.37
2019-03-30T01:19:31.293Z,14.70
2019-03-30T01:22:03.913Z,15.67
2019-03-30T01:24:35.079Z,17.17
2019-03-30T01:27:06.371Z,16.13
2019-03-30T01:29:37.653Z,17.17
2019-03-30T01:32:08.958Z,16.70
2019-03-30T01:34:40.208Z,17.07
2019-03-30T01:37:11.372Z,16.37
2019-03-30T01:39:42.498Z,16.63
2019-03-30T01:42:13.714Z,16.33
2019-03-30T01:44:44.956Z,17.60
2019-03-30T01:47:16.186Z,21.17
2019-03-30T01:49:47.458Z,19.23
2019-03-30T01:52:18.721Z,19.23
2019-03-30T01:54:49.955Z,18.93
2019-03-30T01:57:21.172Z,17.73
2019-03-30T01:59:52.518Z,17.43
2019-03-30T02:02:23.815Z,19.03
2019-03-30T02:04:54.987Z,18.33
2019-03-30T02:07:26.224Z,16.77
2019-03-30T02:09:57.403Z,16.40
2019-03-30T02:12:28.616Z,18.93
2019-03-30T02:14:59.904Z,19.07
2019-03-30T02:17:31.110Z,18.67
2019-03-30T02:20:02.309Z,19.73
2019-03-30T02:22:33.644Z,19.27
2019-03-30T02:25:05.076Z,18.90
2019-03-30T02:27:36.299Z,19.27
2019-03-30T02:30:08.695Z,19.33
2019-03-30T02:32:39.904Z,18.33
2019-03-30T02:35:11.248Z,21.60
2019-03-30T02:37:42.415Z,20.53
2019-03-30T02:40:13.681Z,19.63
2019-03-30T02:42:44.908Z,18.40
2019-03-30T02:45:16.101Z,19.20
2019-03-30T02:47:47.322Z,17.43
2019-03-30T02:50:18.576Z,19.20
2019-03-30T02:52:49.800Z,18.50
2019-03-30T02:55:21.143Z,16.93
2019-03-30T02:57:52.396Z,17.90
2019-03-30T03:00:23.625Z,20.10
2019-03-30T03:02:54.847Z,19.43
2019-03-30T03:05:26.176Z,18.10
2019-03-30T03:07:57.424Z,16.63
2019-03-30T03:10:28.760Z,17.83
2019-03-30T03:13:00.039Z,19.27
2019-03-30T03:15:31.255Z,18.27
2019-03-30T03:18:02.547Z,20.30
2019-03-30T03:20:33.849Z,21.87
2019-03-30T03:23:05.088Z,20.40
2019-03-30T03:25:36.737Z,19.33
2019-03-30T03:28:07.952Z,21.30
2019-03-30T03:30:39.242Z,20.30
2019-03-30T03:33:11.038Z,20.63
2019-03-30T03:35:42.296Z,23.47
2019-03-30T03:38:13.506Z,20.03
2019-03-30T03:40:44.703Z,19.77
2019-03-30T03:43:15.921Z,17.23
2019-03-30T03:45:47.348Z,16.50
2019-03-30T03:48:18.648Z,19.30
2019-03-30T03:50:59.782Z,18.37
2019-03-30T03:53:31.356Z,19.03
2019-03-30T03:56:03.639Z,24.13
2019-03-30T03:58:37.238Z,22.17
2019-03-30T04:01:08.551Z,20.90
2019-03-30T04:03:41.033Z,21.17
2019-03-30T04:06:12.675Z,21.00
2019-03-30T04:08:47.353Z,23.47
2019-03-30T04:11:19.909Z,20.47
2019-03-30T04:13:54.288Z,23.07
2019-03-30T04:16:25.520Z,22.60
2019-03-30T04:18:56.776Z,20.03
2019-03-30T04:21:42.767Z,20.80
2019-03-30T04:24:00.989Z,25.47
2019-03-30T04:26:32.295Z,22.50
2019-03-30T04:29:03.504Z,20.30
2019-03-30T04:31:34.809Z,19.83
2019-03-30T04:34:06.063Z,21.97
2019-03-30T04:36:37.222Z,25.33
2019-03-30T04:39:08.766Z,24.17
2019-03-30T04:41:40.030Z,21.77
2019-03-30T04:44:11.276Z,24.33
2019-03-30T04:46:42.519Z,24.97
2019-03-30T04:49:13.736Z,20.70
2019-03-30T04:51:56.989Z,24.97
2019-03-30T04:54:18.013Z,29.40
2019-03-30T04:56:49.201Z,33.13
2019-03-30T04:59:20.468Z,25.07
2019-03-30T05:01:51.738Z,25.20
2019-03-30T05:04:23.014Z,26.53
2019-03-30T05:06:54.231Z,26.73
2019-03-30T05:09:25.494Z,23.20
2019-03-30T05:11:56.716Z,19.93
2019-03-30T05:14:28.068Z,24.17
2019-03-30T05:16:59.270Z,21.93
2019-03-30T05:19:30.622Z,22.77
2019-03-30T05:22:11.989Z,22.40
2019-03-30T05:24:35.025Z,18.20
2019-03-30T05:27:06.117Z,21.40
2019-03-30T05:29:37.350Z,24.73
2019-03-30T05:32:08.663Z,21.87
2019-03-30T05:34:39.985Z,23.20
2019-03-30T05:37:11.318Z,23.30
2019-03-30T05:39:42.537Z,21.77
2019-03-30T05:42:13.655Z,22.03
2019-03-30T05:44:44.928Z,24.60
2019-03-30T05:47:16.192Z,24.20
2019-03-30T05:49:47.428Z,21.27
2019-03-30T05:52:26.472Z,22.17
2019-03-30T05:54:51.652Z,21.93
2019-03-30T05:57:22.872Z,20.77
2019-03-30T05:59:55.820Z,23.47
2019-03-30T06:02:27.093Z,23.07
2019-03-30T06:04:58.845Z,22.47
2019-03-30T06:07:30.295Z,25.23
2019-03-30T06:10:01.504Z,27.00
2019-03-30T06:12:32.714Z,24.67
2019-03-30T06:15:04.356Z,26.53
2019-03-30T06:17:35.544Z,25.47
2019-03-30T06:20:06.923Z,29.20
2019-03-30T06:22:40.516Z,25.77
2019-03-30T06:25:11.250Z,24.63
2019-03-30T06:27:42.587Z,28.90
2019-03-30T06:30:38.786Z,26.00
2019-03-30T06:33:09.996Z,28.00
2019-03-30T06:35:41.308Z,27.27
2019-03-30T06:38:12.561Z,28.37
2019-03-30T06:40:43.662Z,28.77
2019-03-30T06:43:14.902Z,26.50
2019-03-30T06:45:46.078Z,26.60
2019-03-30T06:48:17.189Z,24.20
2019-03-30T06:50:48.475Z,24.13
2019-03-30T06:53:19.709Z,30.30
2019-03-30T06:55:50.975Z,28.50
2019-03-30T06:58:22.201Z,27.23
2019-03-30T07:00:54.476Z,23.97
2019-03-30T07:03:26.030Z,26.37
2019-03-30T07:05:58.202Z,21.07
2019-03-30T07:08:31.317Z,25.47
2019-03-30T07:11:04.663Z,25.67
2019-03-30T07:13:38.610Z,26.20
2019-03-30T07:16:10.190Z,23.27
2019-03-30T07:18:43.910Z,22.40
2019-03-30T07:21:15.220Z,23.90
2019-03-30T07:23:46.544Z,24.30
2019-03-30T07:26:17.828Z,23.70
2019-03-30T07:28:49.028Z,22.47
2019-03-30T07:31:20.286Z,24.50
2019-03-30T07:33:51.498Z,23.87
2019-03-30T07:36:22.777Z,27.13
2019-03-30T07:38:54.191Z,22.47
2019-03-30T07:41:25.511Z,21.57
2019-03-30T07:43:56.744Z,22.27
2019-03-30T07:46:28.051Z,22.67
2019-03-30T07:48:59.323Z,22.87
2019-03-30T07:51:33.401Z,21.40
2019-03-30T07:54:03.765Z,23.03
2019-03-30T07:56:34.972Z,23.00
2019-03-30T07:59:06.213Z,21.93
2019-03-30T08:01:37.499Z,20.93
2019-03-30T08:04:08.860Z,22.50
2019-03-30T08:06:40.124Z,23.17
2019-03-30T08:09:11.383Z,21.33
2019-03-30T08:11:42.684Z,24.33
2019-03-30T08:14:13.951Z,21.23
2019-03-30T08:16:45.209Z,20.93
2019-03-30T08:19:16.514Z,21.97
2019-03-30T08:21:47.942Z,24.60
2019-03-30T08:24:19.196Z,22.23
2019-03-30T08:26:50.597Z,27.87
2019-03-30T08:29:21.837Z,24.03
2019-03-30T08:31:53.088Z,24.17
2019-03-30T08:34:24.322Z,24.33
2019-03-30T08:36:59.050Z,24.67
2019-03-30T08:39:28.682Z,24.67
2019-03-30T08:42:00.058Z,25.43
2019-03-30T08:44:31.382Z,24.80
2019-03-30T08:47:02.601Z,38.47
2019-03-30T08:49:33.851Z,29.67
2019-03-30T08:52:05.160Z,24.00
2019-03-30T08:54:36.498Z,25.17
2019-03-30T08:57:07.847Z,24.97
2019-03-30T08:59:39.135Z,24.27
2019-03-30T09:02:10.375Z,26.07
2019-03-30T09:04:41.613Z,24.90
2019-03-30T09:07:12.752Z,26.33
2019-03-30T09:09:45.056Z,25.83
2019-03-30T09:12:16.346Z,26.07
2019-03-30T09:14:47.634Z,28.27
2019-03-30T09:17:18.939Z,26.53
2019-03-30T09:19:50.281Z,25.93
2019-03-30T09:22:21.495Z,25.77
2019-03-30T09:24:52.721Z,27.77
2019-03-30T09:27:24.013Z,95.13
2019-03-30T09:29:55.329Z,26.17
2019-03-30T09:32:26.478Z,33.67
2019-03-30T09:34:57.792Z,28.33
2019-03-30T09:37:28.986Z,26.33
2019-03-30T09:40:00.161Z,24.83
2019-03-30T09:42:31.636Z,24.67
2019-03-30T09:45:02.921Z,25.83
2019-03-30T09:47:34.141Z,24.80
2019-03-30T09:50:06.217Z,24.77
2019-03-30T09:52:37.446Z,23.90
2019-03-30T09:55:09.326Z,25.90
2019-03-30T09:57:40.570Z,21.87
2019-03-30T10:00:12.511Z,25.23
2019-03-30T10:02:43.652Z,24.43
2019-03-30T10:05:15.001Z,26.17
2019-03-30T10:07:46.323Z,25.53
2019-03-30T10:10:17.587Z,21.37
2019-03-30T10:12:48.849Z,23.33
2019-03-30T10:15:20.176Z,22.87
2019-03-30T10:17:51.489Z,22.00
2019-03-30T10:20:22.756Z,22.13
2019-03-30T10:22:54.059Z,17.33
2019-03-30T10:25:25.266Z,23.07
2019-03-30T10:27:56.508Z,20.93
2019-03-30T10:30:27.781Z,22.77
2019-03-30T10:32:59.033Z,20.97
2019-03-30T10:35:30.282Z,22.15
2019-03-30T10:38:01.540Z,20.88
2019-03-30T10:40:32.749Z,21.40
2019-03-30T10:43:04.005Z,24.00
2019-03-30T10:45:35.319Z,24.07
2019-03-30T10:48:06.581Z,23.00
2019-03-30T10:50:37.887Z,21.33
2019-03-30T10:53:09.176Z,20.25
2019-03-30T10:55:40.369Z,22.17
2019-03-30T10:58:11.519Z,21.97
2019-03-30T11:00:43.465Z,26.20
2019-03-30T11:03:14.735Z,23.07
2019-03-30T11:05:45.974Z,20.37
2019-03-30T11:08:17.210Z,21.00
2019-03-30T11:10:48.378Z,21.12
2019-03-30T11:13:19.645Z,20.50
2019-03-30T11:15:50.981Z,23.20
2019-03-30T11:18:22.262Z,19.85
2019-03-30T11:20:53.504Z,23.75
2019-03-30T11:23:24.801Z,23.65
2019-03-30T11:25:55.998Z,21.70
2019-03-30T11:28:27.298Z,20.72
2019-03-30T11:30:58.579Z,22.98
2019-03-30T11:33:29.769Z,22.77
2019-03-30T11:36:00.978Z,18.20
2019-03-30T11:38:32.190Z,21.73
2019-03-30T11:41:03.851Z,21.33
2019-03-30T11:43:35.119Z,23.20
2019-03-30T11:46:06.326Z,21.57
2019-03-30T11:48:37.808Z,21.60
2019-03-30T11:51:09.241Z,23.17
2019-03-30T11:53:40.463Z,21.77
2019-03-30T11:56:11.834Z,22.00
2019-03-30T11:58:43.133Z,22.37
2019-03-30T12:01:14.581Z,22.17
2019-03-30T12:03:45.823Z,20.90
2019-03-30T12:06:17.041Z,20.60
2019-03-30T12:08:48.292Z,21.87
2019-03-30T12:11:19.538Z,20.63
2019-03-30T12:13:50.635Z,23.27
2019-03-30T12:16:21.923Z,21.07
2019-03-30T12:18:53.194Z,22.67
2019-03-30T12:21:25.978Z,22.80
2019-03-30T12:23:57.126Z,21.97
2019-03-30T12:26:28.374Z,21.53
2019-03-30T12:29:00.096Z,22.47
2019-03-30T12:31:31.374Z,20.00
2019-03-30T12:34:03.418Z,21.67
2019-03-30T12:36:34.835Z,18.57
2019-03-30T12:39:08.247Z,19.53
2019-03-30T12:41:39.459Z,18.23
2019-03-30T12:44:10.844Z,19.03
2019-03-30T12:46:42.693Z,17.57
2019-03-30T12:49:14.035Z,20.53
2019-03-30T12:51:45.420Z,16.45
2019-03-30T12:54:16.749Z,18.03
2019-03-30T12:56:47.998Z,16.95
2019-03-30T12:59:21.534Z,15.72
2019-03-30T13:01:52.825Z,17.80
2019-03-30T13:04:24.089Z,15.98
2019-03-30T13:06:55.317Z,16.60
2019-03-30T13:09:26.645Z,19.23
2019-03-30T13:11:57.753Z,19.32
2019-03-30T13:14:29.128Z,18.98
2019-03-30T13:17:00.395Z,18.73
2019-03-30T13:19:31.641Z,19.37
2019-03-30T13:22:02.837Z,15.38
2019-03-30T13:24:34.118Z,23.73
2019-03-30T13:27:05.450Z,17.50
2019-03-30T13:29:36.609Z,19.27
2019-03-30T13:32:07.914Z,18.50
2019-03-30T13:34:39.198Z,18.37
2019-03-30T13:37:18.146Z,18.57
2019-03-30T13:39:49.664Z,17.10
2019-03-30T13:42:20.912Z,18.73
2019-03-30T13:44:52.021Z,17.73
2019-03-30T13:47:23.321Z,18.20
2019-03-30T13:49:54.648Z,18.57
2019-03-30T13:52:25.875Z,17.97
2019-03-30T13:54:57.164Z,15.23
2019-03-30T13:57:28.499Z,19.23
2019-03-30T13:59:59.765Z,19.13
2019-03-30T14:02:31.021Z,21.07
2019-03-30T14:05:02.288Z,19.30
2019-03-30T14:07:33.632Z,18.57
2019-03-30T14:10:05.408Z,43.67
2019-03-30T14:12:36.630Z,95.30
2019-03-30T14:15:09.537Z,76.33
2019-03-30T14:17:40.960Z,24.63
2019-03-30T14:20:12.245Z,78.10
2019-03-30T14:22:43.507Z,71.33
2019-03-30T14:25:15.747Z,44.43
2019-03-30T14:27:45.739Z,34.00
2019-03-30T14:30:17.551Z,31.97
2019-03-30T14:32:48.804Z,24.43
2019-03-30T14:35:20.132Z,26.67
2019-03-30T14:37:51.324Z,19.97
2019-03-30T14:40:22.603Z,19.70
2019-03-30T14:42:53.835Z,15.80
2019-03-30T14:45:25.079Z,18.63
2019-03-30T14:47:58.073Z,14.47
2019-03-30T14:50:29.518Z,13.77
2019-03-30T14:53:00.778Z,14.03
2019-03-30T14:55:31.963Z,16.60
2019-03-30T14:58:03.319Z,49.40
2019-03-30T15:00:34.718Z,38.63
2019-03-30T15:03:06.267Z,28.03
2019-03-30T15:05:37.544Z,50.00
2019-03-30T15:08:08.815Z,16.93
2019-03-30T15:10:40.113Z,15.23
2019-03-30T15:13:11.416Z,18.77
2019-03-30T15:15:42.688Z,36.90
2019-03-30T15:18:13.962Z,18.37
2019-03-30T15:20:45.201Z,29.13
2019-03-30T15:23:19.619Z,115.00
2019-03-30T15:25:50.850Z,20.87
2019-03-30T15:28:22.096Z,31.40
2019-03-30T15:30:53.389Z,17.97
2019-03-30T15:33:24.792Z,19.33
2019-03-30T15:35:56.204Z,18.90
2019-03-30T15:38:27.515Z,20.20
2019-03-30T15:40:58.899Z,19.30
2019-03-30T15:43:38.148Z,16.50
2019-03-30T15:46:03.153Z,15.33
2019-03-30T15:48:34.578Z,14.97
2019-03-30T15:51:05.928Z,17.63
2019-03-30T15:53:37.318Z,26.60
2019-03-30T15:56:08.657Z,19.07
2019-03-30T15:58:39.938Z,17.93
2019-03-30T16:01:11.266Z,18.03
2019-03-30T16:03:42.731Z,68.77
2019-03-30T16:06:13.952Z,46.47
2019-03-30T16:08:45.264Z,27.90
2019-03-30T16:11:16.502Z,19.10
2019-03-30T16:13:47.912Z,27.50
2019-03-30T16:16:22.148Z,42.37
2019-03-30T16:18:53.411Z,17.70
2019-03-30T16:21:24.665Z,20.10
2019-03-30T16:23:55.899Z,20.43
2019-03-30T16:26:41.004Z,18.17
2019-03-30T16:29:00.098Z,17.67
2019-03-30T16:31:31.376Z,15.73
2019-03-30T16:34:02.586Z,18.27
2019-03-30T16:36:33.838Z,16.17
2019-03-30T16:39:06.328Z,17.47
2019-03-30T16:41:37.591Z,18.27
2019-03-30T16:44:08.954Z,17.80
2019-03-30T16:46:40.235Z,19.63
2019-03-30T16:49:11.485Z,19.50
2019-03-30T16:51:42.740Z,17.00
2019-03-30T16:54:14.109Z,18.27
2019-03-30T16:56:45.345Z,20.43
2019-03-30T16:59:16.902Z,18.80
2019-03-30T17:01:48.123Z,16.33
2019-03-30T17:04:19.315Z,17.50
2019-03-30T17:06:50.521Z,16.23
2019-03-30T17:09:21.808Z,16.70
2019-03-30T17:11:53.220Z,15.87
2019-03-30T17:14:24.493Z,19.03
2019-03-30T17:16:55.741Z,19.47
2019-03-30T17:19:28.348Z,15.80
2019-03-30T17:21:59.680Z,17.53
2019-03-30T17:24:30.956Z,17.43
2019-03-30T17:27:02.196Z,22.50
2019-03-30T17:29:33.514Z,18.57
2019-03-30T17:32:04.734Z,19.33
2019-03-30T17:34:36.183Z,19.47
2019-03-30T17:37:08.772Z,16.80
2019-03-30T17:39:40.071Z,21.30
2019-03-30T17:42:11.364Z,21.27
2019-03-30T17:44:42.653Z,18.33
2019-03-30T17:47:13.918Z,14.63
2019-03-30T17:49:45.388Z,15.03
2019-03-30T17:52:16.559Z,15.50
2019-03-30T17:54:47.816Z,20.70
2019-03-30T17:57:19.188Z,24.43
2019-03-30T17:59:50.581Z,26.80
2019-03-30T18:02:23.240Z,25.40
2019-03-30T18:04:54.703Z,22.17
2019-03-30T18:07:26.013Z,19.23
2019-03-30T18:09:57.320Z,16.23
2019-03-30T18:12:28.493Z,19.27
2019-03-30T18:14:59.959Z,11.70
2019-03-30T18:17:31.260Z,14.37
2019-03-30T18:20:02.505Z,22.83
2019-03-30T18:22:33.691Z,21.43
2019-03-30T18:25:05.267Z,21.63
2019-03-30T18:27:36.553Z,23.07
2019-03-30T18:30:09.034Z,20.07
2019-03-30T18:32:40.357Z,17.40
2019-03-30T18:35:11.985Z,17.33
2019-03-30T18:37:43.662Z,14.13
2019-03-30T18:40:28.411Z,21.07
2019-03-30T18:43:00.692Z,18.53
2019-03-30T18:45:32.064Z,17.70
2019-03-30T18:48:17.464Z,13.93
2019-03-30T18:50:49.159Z,17.17
2019-03-30T18:53:20.533Z,24.80
2019-03-30T18:55:51.804Z,30.73
2019-03-30T18:58:23.090Z,29.33
2019-03-30T19:00:54.230Z,28.37
2019-03-30T19:03:25.477Z,20.30
2019-03-30T19:05:56.703Z,308.80
2019-03-30T19:08:28.062Z,298.13
2019-03-30T19:10:59.302Z,322.80
2019-03-30T19:13:30.505Z,205.57
2019-03-30T19:16:01.865Z,147.50
2019-03-30T19:18:33.124Z,177.93
2019-03-30T19:21:04.468Z,127.17
2019-03-30T19:23:35.641Z,56.33
2019-03-30T19:26:06.935Z,37.40
2019-03-30T19:28:38.129Z,39.57
2019-03-30T19:31:09.374Z,30.53
2019-03-30T19:33:40.585Z,53.83
2019-03-30T19:36:11.885Z,54.40
2019-03-30T19:38:43.212Z,29.83
2019-03-30T19:41:14.446Z,16.03
2019-03-30T19:43:45.673Z,13.00
2019-03-30T19:46:17.004Z,121.70
2019-03-30T19:48:48.165Z,17.63
2019-03-30T19:51:19.517Z,14.57
2019-03-30T19:53:50.712Z,12.03
2019-03-30T19:56:21.928Z,17.03
2019-03-30T19:58:54.059Z,16.57
2019-03-30T20:01:25.280Z,14.10
2019-03-30T20:03:56.567Z,209.57
2019-03-30T20:06:27.833Z,533.80
2019-03-30T20:08:59.295Z,268.27
2019-03-30T20:11:30.656Z,395.30
2019-03-30T20:14:01.890Z,90.47
2019-03-30T20:16:33.199Z,137.20
2019-03-30T20:19:11.949Z,412.70
2019-03-30T20:21:37.524Z,142.13
2019-03-30T20:24:08.796Z,738.77
2019-03-30T20:26:40.084Z,534.43
2019-03-30T20:29:24.668Z,36.23
2019-03-30T20:31:44.339Z,16.23
2019-03-30T20:34:15.546Z,17.90
2019-03-30T20:36:47.861Z,49.80
2019-03-30T20:39:19.287Z,19.50
2019-03-30T20:41:50.539Z,12.60
2019-03-30T20:44:21.743Z,14.53
2019-03-30T20:46:52.914Z,18.87
2019-03-30T20:49:24.254Z,21.93
2019-03-30T20:51:55.537Z,21.70
2019-03-30T20:54:26.906Z,17.67
2019-03-30T20:56:58.205Z,16.17
2019-03-30T20:59:39.820Z,14.07
2019-03-30T21:02:02.566Z,30.40
2019-03-30T21:04:34.267Z,14.60
2019-03-30T21:07:05.591Z,15.50
2019-03-30T21:09:36.903Z,15.33
2019-03-30T21:12:08.189Z,12.73
2019-03-30T21:14:39.625Z,13.47
2019-03-30T21:17:12.289Z,15.53
2019-03-30T21:19:43.447Z,19.37
2019-03-30T21:22:14.815Z,20.40
2019-03-30T21:24:46.043Z,19.60
2019-03-30T21:27:17.250Z,17.20
2019-03-30T21:29:54.402Z,16.13
2019-03-30T21:32:22.755Z,15.73
2019-03-30T21:34:53.942Z,16.47
2019-03-30T21:37:25.412Z,22.40
2019-03-30T21:39:56.678Z,22.83
2019-03-30T21:42:27.936Z,17.50
2019-03-30T21:44:59.156Z,21.63
2019-03-30T21:47:49.163Z,21.50
2019-03-30T21:50:20.391Z,17.53
2019-03-30T21:52:51.713Z,23.73
2019-03-30T21:55:23.013Z,20.63
2019-03-30T21:57:54.330Z,15.27
2019-03-30T22:00:37.130Z,18.50
2019-03-30T22:03:08.706Z,21.33
2019-03-30T22:05:40.058Z,21.90
2019-03-30T22:08:11.329Z,17.47
2019-03-30T22:10:42.584Z,28.97
2019-03-30T22:13:13.867Z,21.90
2019-03-30T22:15:45.113Z,21.53
2019-03-30T22:18:16.354Z,19.03
2019-03-30T22:20:47.500Z,18.73
2019-03-30T22:23:18.704Z,498.70
2019-03-30T22:25:49.879Z,425.80
2019-03-30T22:28:22.696Z,46.13
2019-03-30T22:30:53.972Z,20.83
2019-03-30T22:33:25.395Z,19.83
2019-03-30T22:35:56.764Z,23.87
2019-03-30T22:38:28.011Z,19.70
2019-03-30T22:40:59.282Z,24.17
2019-03-30T22:43:30.671Z,24.57
2019-03-30T22:46:01.903Z,27.03
2019-03-30T22:48:33.104Z,19.10
2019-03-30T22:51:04.411Z,17.67
2019-03-30T22:53:35.631Z,28.23
2019-03-30T22:56:06.721Z,27.27
2019-03-30T22:58:38.001Z,28.37
2019-03-30T23:01:11.964Z,28.47
2019-03-30T23:03:44.554Z,21.53
2019-03-30T23:06:15.879Z,22.17
2019-03-30T23:08:47.337Z,23.10
2019-03-30T23:11:18.511Z,103.70
2019-03-30T23:13:49.814Z,132.73
2019-03-30T23:16:21.064Z,30.27
2019-03-30T23:18:52.542Z,22.87
2019-03-30T23:21:23.881Z,19.03
2019-03-30T23:23:55.170Z,20.00
2019-03-30T23:26:26.430Z,16.17
2019-03-30T23:28:59.439Z,18.63
2019-03-30T23:31:30.620Z,151.80
2019-03-30T23:34:01.949Z,33.13
2019-03-30T23:36:33.235Z,25.10
2019-03-30T23:39:05.997Z,18.27
2019-03-30T23:41:37.367Z,21.07
2019-03-30T23:44:08.712Z,22.33
2019-03-30T23:46:40.205Z,20.07
2019-03-30T23:49:11.506Z,18.53
2019-03-30T23:51:42.742Z,24.70
2019-03-30T23:54:17.209Z,26.37
2019-03-30T23:56:48.447Z,24.53
2019-03-30T23:59:19.622Z,24.13
